RPC2252 RPLU-RPLS
Flight info
| Callsign | RPC2252 |
|---|---|
| Flight time | 0h 22m |
| Altitude | 5000 |
| Route | RPLU RPLS |
| Aircraft | YS11/M-DOV/C |
Departure
| Time | 2026-04-22 15:15 |
|---|---|
| Airport | Lubang Airport (RPLU) |
Arrival
| Time | 2026-04-22 15:38 |
|---|---|
| Airport | Danilo Atienza Air Base (RPLS) |
| Time | Latitude | Longitude | Altitude | Speed | Heading |
|---|---|---|---|---|---|
| 2026-04-22 15:04 | 13.85609 | 120.10873 | 67 ft | 0 kts | 67° |
| 2026-04-22 15:05 | 13.85616 | 120.10884 | 67 ft | 1 kts | 41° |
| 2026-04-22 15:05 | 13.85628 | 120.10891 | 67 ft | 1 kts | 9° |
| 2026-04-22 15:05 | 13.85633 | 120.10891 | 67 ft | 0 kts | 7° |
| 2026-04-22 15:06 | 13.85634 | 120.10892 | 67 ft | 1 kts | 6° |
| 2026-04-22 15:06 | 13.85652 | 120.10894 | 67 ft | 0 kts | 11° |
| 2026-04-22 15:10 | 13.85654 | 120.10894 | 67 ft | 1 kts | 11° |
| 2026-04-22 15:10 | 13.85660 | 120.10895 | 67 ft | 0 kts | 14° |
| 2026-04-22 15:11 | 13.85674 | 120.10899 | 67 ft | 4 kts | 16° |
| 2026-04-22 15:12 | 13.85704 | 120.10883 | 67 ft | 9 kts | 256° |
| 2026-04-22 15:12 | 13.85666 | 120.10796 | 66 ft | 17 kts | 245° |
| 2026-04-22 15:12 | 13.85613 | 120.10677 | 65 ft | 18 kts | 245° |
| 2026-04-22 15:12 | 13.85563 | 120.10567 | 63 ft | 15 kts | 245° |
| 2026-04-22 15:13 | 13.85519 | 120.10469 | 63 ft | 14 kts | 245° |
| 2026-04-22 15:13 | 13.85475 | 120.10374 | 61 ft | 17 kts | 244° |
| 2026-04-22 15:13 | 13.85418 | 120.10246 | 60 ft | 19 kts | 245° |
| 2026-04-22 15:13 | 13.85369 | 120.10154 | 60 ft | 12 kts | 237° |
| 2026-04-22 15:14 | 13.85346 | 120.10112 | 59 ft | 0 kts | 248° |
| 2026-04-22 15:14 | 13.85338 | 120.10092 | 59 ft | 4 kts | 276° |
| 2026-04-22 15:14 | 13.85352 | 120.10090 | 58 ft | 0 kts | 62° |
| 2026-04-22 15:14 | 13.85357 | 120.10101 | 59 ft | 8 kts | 68° |
| 2026-04-22 15:15 | 13.85482 | 120.10386 | 61 ft | 82 kts | 66° |
| 2026-04-22 15:15 | 13.85794 | 120.11087 | 191 ft | 118 kts | 65° |
| 2026-04-22 15:15 | 13.86143 | 120.11809 | 648 ft | 113 kts | 60° |
| 2026-04-22 15:15 | 13.86540 | 120.12515 | 1074 ft | 115 kts | 60° |
| 2026-04-22 15:16 | 13.86901 | 120.13240 | 1424 ft | 127 kts | 66° |
| 2026-04-22 15:16 | 13.87342 | 120.14227 | 1311 ft | 166 kts | 68° |
| 2026-04-22 15:16 | 13.87783 | 120.15417 | 1407 ft | 183 kts | 70° |
| 2026-04-22 15:16 | 13.88269 | 120.16583 | 1862 ft | 177 kts | 59° |
| 2026-04-22 15:17 | 13.89040 | 120.17598 | 2166 ft | 181 kts | 53° |
| 2026-04-22 15:17 | 13.89799 | 120.18603 | 2615 ft | 176 kts | 54° |
| 2026-04-22 15:17 | 13.90536 | 120.19642 | 2903 ft | 180 kts | 57° |
| 2026-04-22 15:17 | 13.91266 | 120.20686 | 3219 ft | 181 kts | 57° |
| 2026-04-22 15:18 | 13.92015 | 120.21761 | 3350 ft | 191 kts | 56° |
| 2026-04-22 15:18 | 13.92810 | 120.22941 | 3302 ft | 198 kts | 58° |
| 2026-04-22 15:18 | 13.93632 | 120.23994 | 3674 ft | 184 kts | 49° |
| 2026-04-22 15:18 | 13.94596 | 120.24912 | 3587 ft | 196 kts | 40° |
| 2026-04-22 15:19 | 13.95729 | 120.25730 | 3643 ft | 196 kts | 37° |
| 2026-04-22 15:19 | 13.96823 | 120.26526 | 3884 ft | 188 kts | 39° |
| 2026-04-22 15:19 | 13.97898 | 120.27319 | 3886 ft | 194 kts | 37° |
| 2026-04-22 15:19 | 13.99001 | 120.28150 | 3912 ft | 196 kts | 42° |
| 2026-04-22 15:20 | 13.99681 | 120.28765 | 4050 ft | 191 kts | 47° |
| 2026-04-22 15:20 | 14.00838 | 120.30125 | 4138 ft | 193 kts | 48° |
| 2026-04-22 15:20 | 14.01877 | 120.31057 | 4093 ft | 200 kts | 42° |
| 2026-04-22 15:20 | 14.02926 | 120.31998 | 4136 ft | 201 kts | 48° |
| 2026-04-22 15:21 | 14.03863 | 120.33101 | 3769 ft | 215 kts | 50° |
| 2026-04-22 15:21 | 14.04803 | 120.34277 | 3777 ft | 203 kts | 56° |
| 2026-04-22 15:21 | 14.05564 | 120.35467 | 3853 ft | 191 kts | 58° |
| 2026-04-22 15:21 | 14.06425 | 120.36519 | 3728 ft | 194 kts | 47° |
| 2026-04-22 15:22 | 14.07369 | 120.37463 | 3805 ft | 184 kts | 45° |
| 2026-04-22 15:22 | 14.08301 | 120.38351 | 3695 ft | 187 kts | 45° |
| 2026-04-22 15:22 | 14.09275 | 120.39249 | 3649 ft | 184 kts | 44° |
| 2026-04-22 15:22 | 14.10244 | 120.40130 | 3480 ft | 189 kts | 44° |
| 2026-04-22 15:23 | 14.11240 | 120.41018 | 3477 ft | 184 kts | 42° |
| 2026-04-22 15:23 | 14.12234 | 120.41825 | 3467 ft | 181 kts | 40° |
| 2026-04-22 15:23 | 14.13246 | 120.42594 | 3473 ft | 177 kts | 39° |
| 2026-04-22 15:23 | 14.14249 | 120.43359 | 3380 ft | 183 kts | 39° |
| 2026-04-22 15:24 | 14.15292 | 120.44177 | 3300 ft | 187 kts | 40° |
| 2026-04-22 15:24 | 14.16307 | 120.44997 | 3329 ft | 187 kts | 41° |
| 2026-04-22 15:24 | 14.17342 | 120.45868 | 3265 ft | 190 kts | 42° |
| 2026-04-22 15:24 | 14.18362 | 120.46741 | 3238 ft | 192 kts | 43° |
| 2026-04-22 15:25 | 14.19374 | 120.47617 | 3334 ft | 186 kts | 43° |
| 2026-04-22 15:25 | 14.20355 | 120.48465 | 3473 ft | 180 kts | 43° |
| 2026-04-22 15:25 | 14.21295 | 120.49319 | 3493 ft | 180 kts | 46° |
| 2026-04-22 15:25 | 14.22222 | 120.50230 | 3470 ft | 183 kts | 46° |
| 2026-04-22 15:26 | 14.23116 | 120.51141 | 3591 ft | 177 kts | 47° |
| 2026-04-22 15:26 | 14.24025 | 120.52027 | 3479 ft | 186 kts | 43° |
| 2026-04-22 15:26 | 14.25060 | 120.52882 | 3447 ft | 188 kts | 39° |
| 2026-04-22 15:26 | 14.26105 | 120.53677 | 3504 ft | 187 kts | 39° |
| 2026-04-22 15:27 | 14.27158 | 120.54466 | 3507 ft | 188 kts | 37° |
| 2026-04-22 15:27 | 14.28262 | 120.55216 | 3510 ft | 189 kts | 35° |
| 2026-04-22 15:27 | 14.29380 | 120.55949 | 3559 ft | 187 kts | 35° |
| 2026-04-22 15:27 | 14.30516 | 120.56588 | 3592 ft | 187 kts | 28° |
| 2026-04-22 15:28 | 14.31714 | 120.57182 | 3544 ft | 189 kts | 27° |
| 2026-04-22 15:28 | 14.32911 | 120.57729 | 3354 ft | 189 kts | 25° |
| 2026-04-22 15:28 | 14.34131 | 120.58244 | 3100 ft | 187 kts | 25° |
| 2026-04-22 15:28 | 14.35306 | 120.58762 | 3004 ft | 181 kts | 27° |
| 2026-04-22 15:29 | 14.36480 | 120.59341 | 2823 ft | 185 kts | 26° |
| 2026-04-22 15:29 | 14.37590 | 120.59848 | 3008 ft | 172 kts | 28° |
| 2026-04-22 15:29 | 14.38643 | 120.60579 | 2534 ft | 192 kts | 48° |
| 2026-04-22 15:30 | 14.39633 | 120.62415 | 2659 ft | 177 kts | 66° |
| 2026-04-22 15:30 | 14.40213 | 120.63959 | 2768 ft | 164 kts | 70° |
| 2026-04-22 15:30 | 14.40583 | 120.65042 | 2774 ft | 162 kts | 72° |
| 2026-04-22 15:30 | 14.40909 | 120.66157 | 2767 ft | 158 kts | 75° |
| 2026-04-22 15:31 | 14.41172 | 120.67236 | 2793 ft | 154 kts | 78° |
| 2026-04-22 15:31 | 14.41323 | 120.68365 | 2591 ft | 166 kts | 79° |
| 2026-04-22 15:31 | 14.41587 | 120.69543 | 2558 ft | 163 kts | 78° |
| 2026-04-22 15:31 | 14.41791 | 120.70643 | 2656 ft | 154 kts | 76° |
| 2026-04-22 15:32 | 14.42080 | 120.71703 | 2635 ft | 153 kts | 72° |
| 2026-04-22 15:32 | 14.42389 | 120.72765 | 2566 ft | 156 kts | 73° |
| 2026-04-22 15:32 | 14.42705 | 120.73849 | 2515 ft | 159 kts | 71° |
| 2026-04-22 15:32 | 14.43123 | 120.74966 | 2322 ft | 171 kts | 69° |
| 2026-04-22 15:33 | 14.43557 | 120.76111 | 2252 ft | 171 kts | 69° |
| 2026-04-22 15:33 | 14.44000 | 120.77237 | 2240 ft | 168 kts | 68° |
| 2026-04-22 15:33 | 14.44449 | 120.78313 | 2289 ft | 148 kts | 66° |
| 2026-04-22 15:33 | 14.44862 | 120.79240 | 2088 ft | 136 kts | 63° |
| 2026-04-22 15:34 | 14.45135 | 120.79792 | 2004 ft | 124 kts | 61° |
| 2026-04-22 15:34 | 14.45622 | 120.80833 | 1711 ft | 120 kts | 65° |
| 2026-04-22 15:34 | 14.45935 | 120.81637 | 1533 ft | 118 kts | 67° |
| 2026-04-22 15:34 | 14.46239 | 120.82405 | 1278 ft | 113 kts | 66° |
| 2026-04-22 15:35 | 14.46440 | 120.82886 | 1234 ft | 106 kts | 63° |
| 2026-04-22 15:35 | 14.46836 | 120.83807 | 895 ft | 108 kts | 66° |
| 2026-04-22 15:35 | 14.47152 | 120.84525 | 871 ft | 111 kts | 66° |
| 2026-04-22 15:35 | 14.47458 | 120.85250 | 889 ft | 107 kts | 67° |
| 2026-04-22 15:36 | 14.47731 | 120.85941 | 852 ft | 99 kts | 68° |
| 2026-04-22 15:36 | 14.48011 | 120.86582 | 722 ft | 99 kts | 66° |
| 2026-04-22 15:36 | 14.48276 | 120.87226 | 617 ft | 96 kts | 70° |
| 2026-04-22 15:36 | 14.48541 | 120.87886 | 538 ft | 103 kts | 66° |
| 2026-04-22 15:37 | 14.48817 | 120.88602 | 406 ft | 113 kts | 69° |
| 2026-04-22 15:37 | 14.49129 | 120.89389 | 162 ft | 122 kts | 69° |
| 2026-04-22 15:37 | 14.49450 | 120.90195 | 26 ft | 115 kts | 64° |
| 2026-04-22 15:37 | 14.49714 | 120.90859 | 11 ft | 62 kts | 68° |
| 2026-04-22 15:38 | 14.49825 | 120.91135 | 14 ft | 29 kts | 68° |
| 2026-04-22 15:38 | 14.49924 | 120.91409 | 17 ft | 12 kts | 109° |
| 2026-04-22 15:38 | 14.49873 | 120.91411 | 15 ft | 10 kts | 246° |
| 2026-04-22 15:39 | 14.49848 | 120.91344 | 14 ft | 9 kts | 248° |
| 2026-04-22 15:39 | 14.49821 | 120.91277 | 14 ft | 12 kts | 247° |
| 2026-04-22 15:39 | 14.49779 | 120.91170 | 14 ft | 16 kts | 247° |
| 2026-04-22 15:39 | 14.49733 | 120.91060 | 14 ft | 18 kts | 248° |
| 2026-04-22 15:40 | 14.49680 | 120.90923 | 12 ft | 20 kts | 248° |
| 2026-04-22 15:40 | 14.49628 | 120.90792 | 11 ft | 19 kts | 247° |
| 2026-04-22 15:40 | 14.49592 | 120.90703 | 11 ft | 20 kts | 248° |
| 2026-04-22 15:40 | 14.49530 | 120.90549 | 14 ft | 12 kts | 246° |
| 2026-04-22 15:41 | 14.49497 | 120.90467 | 14 ft | 14 kts | 248° |
| 2026-04-22 15:41 | 14.49450 | 120.90349 | 14 ft | 19 kts | 248° |
| 2026-04-22 15:41 | 14.49403 | 120.90233 | 15 ft | 15 kts | 248° |
| 2026-04-22 15:41 | 14.49367 | 120.90142 | 14 ft | 13 kts | 248° |
| 2026-04-22 15:42 | 14.49326 | 120.90040 | 15 ft | 15 kts | 247° |
| 2026-04-22 15:42 | 14.49289 | 120.89947 | 15 ft | 12 kts | 248° |
| 2026-04-22 15:42 | 14.49259 | 120.89870 | 15 ft | 11 kts | 247° |
| 2026-04-22 15:42 | 14.49224 | 120.89785 | 15 ft | 15 kts | 248° |
| 2026-04-22 15:43 | 14.49178 | 120.89668 | 11 ft | 17 kts | 248° |
| 2026-04-22 15:43 | 14.49138 | 120.89569 | 11 ft | 8 kts | 247° |
| 2026-04-22 15:43 | 14.49113 | 120.89527 | 11 ft | 5 kts | 235° |
| 2026-04-22 15:43 | 14.49083 | 120.89518 | 13 ft | 2 kts | 156° |
| 2026-04-22 15:44 | 14.49080 | 120.89519 | 13 ft | 0 kts | 156° |
| 2026-04-22 15:44 | 14.49070 | 120.89523 | 15 ft | 2 kts | 156° |
| 2026-04-22 15:44 | 14.49067 | 120.89525 | 15 ft | 0 kts | 156° |